^^
Station Historical Data
Daily Summary for May 21, 2021 Units:  English    Metric   Both
Daily Weekly Monthly Yearly
  High: Low: Average:
Temperature: 82.2 °F 67.9 °F 74 °F
Dew Point: 67.5 °F 58.6 °F 62.5 °F
Humidity: 78% 54% 68%
Wind Speed: 3mph 0mph 1.5mph
Wind Gust: 7mph - -
Wind- - WSW
Pressure: 30.31 in 30.24 in -
Precipitation: 0.00 in    
 
 
Tabular Data for May 21, 2021
Time Temperature Dew Point Pressure Wind Wind Speed Wind Gust Humidity Rainfall Rate (Hourly) solar
00:00 72.1 °F 64.1 °F 30.24 in SSE 1 mph 1 mph 76% 0.00 in 0 W/m2
00:05 72 °F 63.6 °F 30.25 in SSE 1 mph 1 mph 75% 0.00 in 0 W/m2
00:10 71.9 °F 64.3 °F 30.25 in Calm     77% 0.00 in 0 W/m2
00:15 71.9 °F 64.7 °F 30.25 in Calm   1 mph 78% 0.00 in 0 W/m2
00:20 71.7 °F 64.1 °F 30.25 in SSE 1 mph 1 mph 77% 0.00 in 0 W/m2
00:25 71.5 °F 63.2 °F 30.25 in Calm   1 mph 75% 0.00 in 0 W/m2
00:30 71.5 °F 63.9 °F 30.25 in Calm     77% 0.00 in 0 W/m2
00:35 71.5 °F 63.2 °F 30.25 in SW 1 mph 1 mph 75% 0.00 in 0 W/m2
00:40 71.7 °F 63 °F 30.25 in SSE 1 mph 1 mph 74% 0.00 in 0 W/m2
00:45 71.9 °F 62.4 °F 30.25 in East 1 mph 1 mph 72% 0.00 in 0 W/m2
00:50 72 °F 62.5 °F 30.25 in SSE 1 mph 1 mph 72% 0.00 in 0 W/m2
00:55 72 °F 62.5 °F 30.25 in WSW 2 mph 2 mph 72% 0.00 in 0 W/m2
01:00 72 °F 62.9 °F 30.25 in WNW 1 mph 1 mph 73% 0.00 in 0 W/m2
01:05 71.8 °F 62.7 °F 30.25 in SW 1 mph 1 mph 73% 0.00 in 0 W/m2
01:10 71.7 °F 62.6 °F 30.25 in NNW 1 mph 1 mph 73% 0.00 in 0 W/m2
01:15 71.5 °F 63.2 °F 30.25 in NNW 1 mph 1 mph 75% 0.00 in 0 W/m2
01:20 71.3 °F 63 °F 30.25 in NW 1 mph 1 mph 75% 0.00 in 0 W/m2
01:25 71.2 °F 62.5 °F 30.25 in NNW 1 mph 1 mph 74% 0.00 in 0 W/m2
01:30 71 °F 62.3 °F 30.25 in NNW 1 mph 1 mph 74% 0.00 in 0 W/m2
01:35 70.9 °F 62.2 °F 30.25 in WNW 1 mph 1 mph 74% 0.00 in 0 W/m2
01:40 70.8 °F 62.1 °F 30.25 in NNW 1 mph 1 mph 74% 0.00 in 0 W/m2
01:45 70.8 °F 61.7 °F 30.25 in North 1 mph 1 mph 73% 0.00 in 0 W/m2
01:50 71 °F 61.5 °F 30.25 in NNE 1 mph 1 mph 72% 0.00 in 0 W/m2
01:55 71 °F 61.9 °F 30.25 in NNW 1 mph 1 mph 73% 0.00 in 0 W/m2
02:00 70.9 °F 61.4 °F 30.25 in NW 1 mph 1 mph 72% 0.00 in 0 W/m2
02:05 70.8 °F 61.7 °F 30.25 in NNW 1 mph 1 mph 73% 0.00 in 0 W/m2
02:10 70.8 °F 61.7 °F 30.25 in WNW 1 mph 1 mph 73% 0.00 in 0 W/m2
02:15 70.8 °F 61.3 °F 30.25 in NNW 1 mph 2 mph 72% 0.00 in 0 W/m2
02:20 70.7 °F 61.2 °F 30.25 in NW 1 mph 1 mph 72% 0.00 in 0 W/m2
02:25 70.7 °F 60.8 °F 30.25 in ESE 1 mph 1 mph 71% 0.00 in 0 W/m2
02:30 70.7 °F 60.8 °F 30.25 in North 1 mph 1 mph 71% 0.00 in 0 W/m2
02:35 70.7 °F 60.8 °F 30.25 in NNE 1 mph 1 mph 71% 0.00 in 0 W/m2
02:40 70.7 °F 61.2 °F 30.25 in NNW 1 mph 3 mph 72% 0.00 in 0 W/m2
02:45 70.7 °F 60 °F 30.25 in NNW 1 mph 3 mph 69% 0.00 in 0 W/m2
02:50 70.8 °F 60.5 °F 30.25 in WNW 1 mph 1 mph 70% 0.00 in 0 W/m2
02:55 70.8 °F 60.5 °F 30.25 in North 1 mph 1 mph 70% 0.00 in 0 W/m2
03:00 70.7 °F 60 °F 30.24 in WNW 1 mph 2 mph 69% 0.00 in 0 W/m2
03:05 70.7 °F 60.4 °F 30.24 in NW 1 mph 2 mph 70% 0.00 in 0 W/m2
03:10 70.7 °F 59.6 °F 30.24 in NW 1 mph 2 mph 68% 0.00 in 0 W/m2
03:15 70.7 °F 60 °F 30.24 in North 1 mph 2 mph 69% 0.00 in 0 W/m2
03:20 70.7 °F 60 °F 30.24 in NNW 1 mph 1 mph 69% 0.00 in 0 W/m2
03:25 70.6 °F 59.5 °F 30.24 in North 1 mph 1 mph 68% 0.00 in 0 W/m2
03:30 70.6 °F 59.9 °F 30.24 in WNW 1 mph 1 mph 69% 0.00 in 0 W/m2
03:35 70.7 °F 59.6 °F 30.24 in NNW 1 mph 1 mph 68% 0.00 in 0 W/m2
03:40 70.7 °F 60 °F 30.24 in North 1 mph 1 mph 69% 0.00 in 0 W/m2
03:45 70.6 °F 59.5 °F 30.24 in WSW 1 mph 2 mph 68% 0.00 in 0 W/m2
03:50 70.6 °F 59.5 °F 30.24 in NW 1 mph 1 mph 68% 0.00 in 0 W/m2
03:55 70.5 °F 59.4 °F 30.24 in NE 1 mph 1 mph 68% 0.00 in 0 W/m2
04:00 70.4 °F 59.3 °F 30.24 in NNW 1 mph 1 mph 68% 0.00 in 0 W/m2
04:05 70.3 °F 59.6 °F 30.24 in NNW 1 mph 1 mph 69% 0.00 in 0 W/m2
04:10 70.2 °F 59.1 °F 30.24 in WNW 1 mph 1 mph 68% 0.00 in 0 W/m2
04:15 70 °F 59 °F 30.24 in NNW 1 mph 2 mph 68% 0.00 in 0 W/m2
04:20 69.9 °F 59.7 °F 30.24 in NW 1 mph 1 mph 70% 0.00 in 0 W/m2
04:25 69.8 °F 59.2 °F 30.24 in NW 1 mph 1 mph 69% 0.00 in 0 W/m2
04:30 69.7 °F 59.1 °F 30.24 in NW 1 mph 1 mph 69% 0.00 in 0 W/m2
04:35 69.6 °F 59 °F 30.24 in NW 1 mph 1 mph 69% 0.00 in 0 W/m2
04:40 69.6 °F 59.4 °F 30.24 in NW 1 mph 1 mph 70% 0.00 in 0 W/m2
04:45 69.5 °F 58.9 °F 30.24 in NE 1 mph 1 mph 69% 0.00 in 0 W/m2
04:50 69.4 °F 59.6 °F 30.24 in NNW 1 mph 1 mph 71% 0.00 in 0 W/m2
04:55 69.2 °F 59.4 °F 30.24 in ENE 1 mph 1 mph 71% 0.00 in 0 W/m2
05:00 69.1 °F 59.7 °F 30.25 in NNE 1 mph 1 mph 72% 0.00 in 0 W/m2
05:05 69 °F 59.2 °F 30.25 in North 1 mph 1 mph 71% 0.00 in 0 W/m2
05:10 69 °F 59.2 °F 30.25 in North 1 mph 1 mph 71% 0.00 in 0 W/m2
05:15 68.9 °F 59.1 °F 30.25 in NNW 1 mph 1 mph 71% 0.00 in 0 W/m2
05:20 68.8 °F 58.6 °F 30.25 in NNW 1 mph 2 mph 70% 0.00 in 0 W/m2
05:25 68.7 °F 59.3 °F 30.25 in NNW 1 mph 2 mph 72% 0.00 in 0 W/m2
05:30 68.6 °F 59.2 °F 30.25 in NNW 1 mph 1 mph 72% 0.00 in 0 W/m2
05:35 68.5 °F 59.5 °F 30.25 in NNW 1 mph 1 mph 73% 0.00 in 0 W/m2
05:40 68.3 °F 59.3 °F 30.25 in NNW 1 mph 1 mph 73% 0.00 in 0 W/m2
05:45 68.3 °F 59.3 °F 30.25 in NNW 1 mph 1 mph 73% 0.00 in 0 W/m2
05:50 68.2 °F 59.2 °F 30.26 in NNW 1 mph 1 mph 73% 0.00 in 0 W/m2
05:55 68.1 °F 59.5 °F 30.26 in NNW 1 mph 1 mph 74% 0.00 in 0 W/m2
06:00 68.1 °F 59.9 °F 30.26 in NNE 1 mph 1 mph 75% 0.00 in 0 W/m2
06:05 68.1 °F 60.2 °F 30.26 in Calm   1 mph 76% 0.00 in 0 W/m2
06:10 68 °F 60.5 °F 30.27 in Calm     77% 0.00 in 5 W/m2
06:15 68 °F 60.2 °F 30.27 in Calm     76% 0.00 in 9 W/m2
06:20 67.9 °F 60.1 °F 30.27 in Calm     76% 0.00 in 12 W/m2
06:25 67.9 °F 59.7 °F 30.27 in Calm     75% 0.00 in 16 W/m2
06:30 67.9 °F 60.1 °F 30.27 in Calm     76% 0.00 in 19 W/m2
06:35 67.9 °F 59.7 °F 30.27 in Calm     75% 0.00 in 23 W/m2
06:40 67.9 °F 60.1 °F 30.28 in Calm     76% 0.00 in 28 W/m2
06:45 67.9 °F 60.4 °F 30.28 in Calm     77% 0.00 in 33 W/m2
06:50 68 °F 60.5 °F 30.28 in Calm     77% 0.00 in 39 W/m2
06:55 68 °F 60.2 °F 30.28 in Calm   1 mph 76% 0.00 in 42 W/m2
07:00 68.2 °F 60.3 °F 30.28 in Calm   1 mph 76% 0.00 in 49 W/m2
07:05 68.3 °F 60.1 °F 30.28 in North 1 mph 1 mph 75% 0.00 in 58 W/m2
07:10 68.4 °F 60.2 °F 30.29 in North 1 mph 1 mph 75% 0.00 in 63 W/m2
07:15 68.5 °F 60.6 °F 30.29 in North 1 mph 1 mph 76% 0.00 in 69 W/m2
07:20 68.5 °F 60.3 °F 30.29 in Calm     75% 0.00 in 76 W/m2
07:25 68.6 °F 60.7 °F 30.29 in Calm     76% 0.00 in 79 W/m2
07:30 68.5 °F 60.3 °F 30.29 in Calm   1 mph 75% 0.00 in 83 W/m2
07:35 68.5 °F 60.3 °F 30.29 in Calm   1 mph 75% 0.00 in 88 W/m2
07:40 68.5 °F 59.9 °F 30.29 in Calm     74% 0.00 in 93 W/m2
07:45 68.6 °F 60 °F 30.30 in Calm     74% 0.00 in 100 W/m2
07:50 68.6 °F 59.6 °F 30.30 in Calm     73% 0.00 in 113 W/m2
07:55 68.8 °F 59.8 °F 30.30 in Calm     73% 0.00 in 107 W/m2
08:00 68.9 °F 59.9 °F 30.30 in North 1 mph 1 mph 73% 0.00 in 114 W/m2
08:05 69 °F 60.4 °F 30.30 in Calm   1 mph 74% 0.00 in 142 W/m2
08:10 69 °F 60.4 °F 30.30 in Calm     74% 0.00 in 204 W/m2
08:15 69.1 °F 60.1 °F 30.30 in Calm   1 mph 73% 0.00 in 169 W/m2
08:20 69.2 °F 60.6 °F 30.30 in Calm     74% 0.00 in 156 W/m2
08:25 69.2 °F 60.6 °F 30.31 in Calm     74% 0.00 in 185 W/m2
08:30 69.3 °F 60.7 °F 30.31 in Calm     74% 0.00 in 262 W/m2
08:35 69.5 °F 61.6 °F 30.31 in Calm   1 mph 76% 0.00 in 311 W/m2
08:40 69.7 °F 61 °F 30.31 in SW 1 mph 1 mph 74% 0.00 in 320 W/m2
08:45 70.2 °F 60 °F 30.31 in SW 1 mph 1 mph 70% 0.00 in 352 W/m2
08:50 70.5 °F 59.8 °F 30.31 in SW 1 mph 2 mph 69% 0.00 in 387 W/m2
08:55 70.9 °F 59.8 °F 30.31 in SSW 1 mph 2 mph 68% 0.00 in 390 W/m2
09:00 71.1 °F 60.4 °F 30.31 in SSW 2 mph 2 mph 69% 0.00 in 330 W/m2
09:05 71.2 °F 59.7 °F 30.31 in SSW 2 mph 3 mph 67% 0.00 in 243 W/m2
09:10 71.2 °F 59.7 °F 30.31 in SSW 2 mph 2 mph 67% 0.00 in 323 W/m2
09:15 71.3 °F 60.6 °F 30.31 in SSW 2 mph 2 mph 69% 0.00 in 364 W/m2
09:20 71.3 °F 60.2 °F 30.31 in SSW 2 mph 2 mph 68% 0.00 in 350 W/m2
09:25 71.3 °F 60.6 °F 30.31 in SW 1 mph 2 mph 69% 0.00 in 374 W/m2
09:30 71.3 °F 60.6 °F 30.31 in SW 1 mph 2 mph 69% 0.00 in 448 W/m2
09:35 71.3 °F 61.4 °F 30.31 in SW 1 mph 2 mph 71% 0.00 in 510 W/m2
09:40 71.3 °F 61 °F 30.31 in SW 1 mph 2 mph 70% 0.00 in 517 W/m2
09:45 71.4 °F 61.1 °F 30.31 in SSW 2 mph 2 mph 70% 0.00 in 475 W/m2
09:50 71.5 °F 61.6 °F 30.31 in SSW 1 mph 1 mph 71% 0.00 in 522 W/m2
09:55 71.5 °F 60.8 °F 30.31 in SSW 2 mph 2 mph 69% 0.00 in 487 W/m2
10:00 71.6 °F 61.3 °F 30.31 in SSW 2 mph 2 mph 70% 0.00 in 512 W/m2
10:05 71.6 °F 60.9 °F 30.31 in SW 2 mph 2 mph 69% 0.00 in 420 W/m2
10:10 71.7 °F 61.4 °F 30.31 in SW 1 mph 1 mph 70% 0.00 in 519 W/m2
10:15 71.8 °F 61.5 °F 30.31 in SW 1 mph 1 mph 70% 0.00 in 538 W/m2
10:20 71.8 °F 61.5 °F 30.31 in SW 1 mph 1 mph 70% 0.00 in 279 W/m2
10:25 71.9 °F 61.6 °F 30.31 in SW 1 mph 1 mph 70% 0.00 in 621 W/m2
10:30 71.9 °F 61.2 °F 30.31 in SW 1 mph 2 mph 69% 0.00 in 675 W/m2
10:35 72 °F 61.3 °F 30.31 in SW 1 mph 2 mph 69% 0.00 in 494 W/m2
10:40 72 °F 60.9 °F 30.31 in SW 2 mph 2 mph 68% 0.00 in 691 W/m2
10:45 72.1 °F 61.4 °F 30.31 in SW 1 mph 2 mph 69% 0.00 in 689 W/m2
10:50 72.2 °F 61.9 °F 30.31 in SSW 1 mph 2 mph 70% 0.00 in 506 W/m2
10:55 72.3 °F 62 °F 30.31 in SW 1 mph 2 mph 70% 0.00 in 550 W/m2
11:00 72.4 °F 61.7 °F 30.31 in SW 2 mph 3 mph 69% 0.00 in 694 W/m2
11:05 72.6 °F 61.8 °F 30.31 in SW 2 mph 3 mph 69% 0.00 in 722 W/m2
11:10 73 °F 62.2 °F 30.31 in SSW 2 mph 3 mph 69% 0.00 in 687 W/m2
11:15 73.1 °F 61.9 °F 30.31 in SW 2 mph 3 mph 68% 0.00 in 631 W/m2
11:20 73.2 °F 62 °F 30.31 in SW 2 mph 2 mph 68% 0.00 in 671 W/m2
11:25 73.3 °F 62.1 °F 30.31 in SW 2 mph 2 mph 68% 0.00 in 626 W/m2
11:30 73.6 °F 61.5 °F 30.31 in SSW 2 mph 2 mph 66% 0.00 in 689 W/m2
11:35 73.7 °F 61.6 °F 30.31 in SSW 2 mph 2 mph 66% 0.00 in 696 W/m2
11:40 73.9 °F 61.8 °F 30.31 in SSW 2 mph 2 mph 66% 0.00 in 696 W/m2
11:45 74 °F 61.9 °F 30.31 in SSW 2 mph 2 mph 66% 0.00 in 682 W/m2
11:50 74.3 °F 61.8 °F 30.31 in SSW 1 mph 1 mph 65% 0.00 in 740 W/m2
11:55 74.6 °F 62.1 °F 30.31 in SSW 1 mph 1 mph 65% 0.00 in 733 W/m2
12:00 74.9 °F 62.3 °F 30.31 in SW 1 mph 1 mph 65% 0.00 in 550 W/m2
12:05 75.1 °F 62.5 °F 30.31 in SW 1 mph 1 mph 65% 0.00 in 721 W/m2
12:10 75.3 °F 63.2 °F 30.31 in SW 1 mph 1 mph 66% 0.00 in 469 W/m2
12:15 75.1 °F 62.5 °F 30.31 in SW 1 mph 1 mph 65% 0.00 in 529 W/m2
12:20 74.6 °F 62.5 °F 30.31 in SW 1 mph 1 mph 66% 0.00 in 689 W/m2
12:25 74.9 °F 62.8 °F 30.30 in SW 1 mph 2 mph 66% 0.00 in 912 W/m2
12:30 75.3 °F 63.6 °F 30.30 in SW 1 mph 1 mph 67% 0.00 in 886 W/m2
12:35 75.9 °F 64.2 °F 30.30 in SW 1 mph 1 mph 67% 0.00 in 788 W/m2
12:40 76.4 °F 64.6 °F 30.30 in SW 1 mph 1 mph 67% 0.00 in 838 W/m2
12:45 76.5 °F 64.3 °F 30.30 in SW 1 mph 1 mph 66% 0.00 in 708 W/m2
12:50 76.9 °F 66.4 °F 30.30 in Calm     70% 0.00 in 786 W/m2
12:55 77.7 °F 66.3 °F 30.30 in Calm     68% 0.00 in 550 W/m2
13:00 77.6 °F 64.9 °F 30.30 in Calm   1 mph 65% 0.00 in 468 W/m2
13:05 78.2 °F 65.5 °F 30.30 in South 1 mph 1 mph 65% 0.00 in 721 W/m2
13:10 78.7 °F 67.2 °F 30.30 in South 1 mph 1 mph 68% 0.00 in 842 W/m2
13:15 78.4 °F 66.5 °F 30.30 in SSW 1 mph 3 mph 67% 0.00 in 561 W/m2
13:20 78.9 °F 64.8 °F 30.30 in SW 2 mph 2 mph 62% 0.00 in 664 W/m2
13:25 80.5 °F 64.4 °F 30.29 in SSW 2 mph 2 mph 58% 0.00 in 666 W/m2
13:30 81 °F 64.3 °F 30.29 in SW 2 mph 2 mph 57% 0.00 in 714 W/m2
13:35 80.7 °F 65 °F 30.29 in SW 2 mph 3 mph 59% 0.00 in 833 W/m2
13:40 80.2 °F 65.5 °F 30.29 in SW 2 mph 3 mph 61% 0.00 in 904 W/m2
13:45 80.4 °F 64.3 °F 30.29 in SW 2 mph 3 mph 58% 0.00 in 875 W/m2
13:50 80.7 °F 65 °F 30.29 in SSW 3 mph 3 mph 59% 0.00 in 930 W/m2
13:55 80.5 °F 65.8 °F 30.29 in South 3 mph 3 mph 61% 0.00 in 733 W/m2
14:00 80.3 °F 65.1 °F 30.29 in SSW 2 mph 2 mph 60% 0.00 in 598 W/m2
14:05 80.3 °F 65.6 °F 30.28 in SW 2 mph 2 mph 61% 0.00 in 926 W/m2
14:10 79.8 °F 65.2 °F 30.28 in SW 2 mph 2 mph 61% 0.00 in 380 W/m2
14:15 80 °F 64.9 °F 30.28 in WSW 2 mph 2 mph 60% 0.00 in 378 W/m2
14:20 80.4 °F 65.7 °F 30.28 in SSW 2 mph 2 mph 61% 0.00 in 979 W/m2
14:25 80.6 °F 65.4 °F 30.28 in SW 2 mph 2 mph 60% 0.00 in 510 W/m2
14:30 81.3 °F 65.1 °F 30.28 in SSW 2 mph 2 mph 58% 0.00 in 1121 W/m2
14:35 82.2 °F 64.4 °F 30.28 in WSW 2 mph 2 mph 55% 0.00 in 378 W/m2
14:40 82.1 °F 63.8 °F 30.28 in SSW 2 mph 2 mph 54% 0.00 in 378 W/m2
14:45 82.2 °F 64.4 °F 30.28 in SSW 2 mph 4 mph 55% 0.00 in 958 W/m2
14:50 81.7 °F 66 °F 30.28 in SSW 2 mph 2 mph 59% 0.00 in 455 W/m2
14:55 80.6 °F 65.9 °F 30.28 in SSW 2 mph 2 mph 61% 0.00 in 410 W/m2
15:00 79.9 °F 66.6 °F 30.28 in SSW 2 mph 3 mph 64% 0.00 in 359 W/m2
15:05 79.7 °F 66.9 °F 30.28 in SSW 2 mph 3 mph 65% 0.00 in 417 W/m2
15:10 80.5 °F 65.3 °F 30.27 in SW 2 mph 2 mph 60% 0.00 in 714 W/m2
15:15 81.3 °F 65.6 °F 30.27 in SSW 2 mph 2 mph 59% 0.00 in 700 W/m2
15:20 81 °F 65.8 °F 30.27 in SW 2 mph 2 mph 60% 0.00 in 348 W/m2
15:25 80.4 °F 65.7 °F 30.27 in SSW 2 mph 2 mph 61% 0.00 in 383 W/m2
15:30 80.3 °F 65.6 °F 30.27 in SSW 2 mph 2 mph 61% 0.00 in 494 W/m2
15:35 80.3 °F 65.6 °F 30.27 in SSW 2 mph 3 mph 61% 0.00 in 425 W/m2
15:40 80.3 °F 67 °F 30.27 in SW 2 mph 2 mph 64% 0.00 in 306 W/m2
15:45 79.8 °F 67 °F 30.27 in SSW 2 mph 2 mph 65% 0.00 in 304 W/m2
15:50 79.4 °F 67.5 °F 30.27 in SSW 2 mph 2 mph 67% 0.00 in 318 W/m2
15:55 79.3 °F 67.4 °F 30.27 in SSW 2 mph 2 mph 67% 0.00 in 425 W/m2
16:00 79.4 °F 67.5 °F 30.27 in SW 2 mph 3 mph 67% 0.00 in 355 W/m2
16:05 79.6 °F 66.8 °F 30.27 in SW 2 mph 3 mph 65% 0.00 in 450 W/m2
16:10 79.8 °F 67 °F 30.27 in SW 2 mph 2 mph 65% 0.00 in 489 W/m2
16:15 80.4 °F 65.7 °F 30.26 in SSW 3 mph 4 mph 61% 0.00 in 425 W/m2
16:20 80.4 °F 66.6 °F 30.26 in SW 3 mph 3 mph 63% 0.00 in 671 W/m2
16:25 80.3 °F 66.6 °F 30.26 in WSW 3 mph 4 mph 63% 0.00 in 598 W/m2
16:30 79.6 °F 66.8 °F 30.26 in SSW 3 mph 4 mph 65% 0.00 in 332 W/m2
16:35 79.1 °F 67.2 °F 30.26 in SSW 3 mph 4 mph 67% 0.00 in 443 W/m2
16:40 78.6 °F 66.7 °F 30.26 in SW 3 mph 4 mph 67% 0.00 in 406 W/m2
16:45 78 °F 65.7 °F 30.26 in SSW 3 mph 4 mph 66% 0.00 in 313 W/m2
16:50 78 °F 66.2 °F 30.26 in SW 3 mph 3 mph 67% 0.00 in 742 W/m2
16:55 77.6 °F 66.2 °F 30.26 in WSW 3 mph 3 mph 68% 0.00 in 281 W/m2
17:00 77.1 °F 65.7 °F 30.26 in SSW 3 mph 4 mph 68% 0.00 in 327 W/m2
17:05 76.8 °F 65 °F 30.26 in WSW 3 mph 5 mph 67% 0.00 in 364 W/m2
17:10 76.7 °F 65.8 °F 30.26 in SW 3 mph 4 mph 69% 0.00 in 311 W/m2
17:15 76.6 °F 65.7 °F 30.26 in SW 3 mph 4 mph 69% 0.00 in 306 W/m2
17:20 76.8 °F 65.4 °F 30.26 in SSW 3 mph 3 mph 68% 0.00 in 357 W/m2
17:25 77.1 °F 65.3 °F 30.26 in South 3 mph 3 mph 67% 0.00 in 670 W/m2
17:30 77.5 °F 66.5 °F 30.26 in SW 3 mph 3 mph 69% 0.00 in 529 W/m2
17:35 77.7 °F 66.7 °F 30.26 in SW 3 mph 3 mph 69% 0.00 in 366 W/m2
17:40 77.8 °F 66 °F 30.26 in SW 3 mph 3 mph 67% 0.00 in 445 W/m2
17:45 77.8 °F 66.4 °F 30.26 in SW 3 mph 3 mph 68% 0.00 in 213 W/m2
17:50 77.8 °F 66 °F 30.26 in WSW 2 mph 2 mph 67% 0.00 in 388 W/m2
17:55 77.7 °F 65.9 °F 30.26 in West 2 mph 2 mph 67% 0.00 in 367 W/m2
18:00 77.7 °F 65.9 °F 30.26 in SW 3 mph 3 mph 67% 0.00 in 396 W/m2
18:05 77.6 °F 65.3 °F 30.25 in SSW 3 mph 3 mph 66% 0.00 in 345 W/m2
18:10 77.6 °F 65.3 °F 30.25 in West 2 mph 2 mph 66% 0.00 in 327 W/m2
18:15 77.6 °F 64.9 °F 30.25 in West 2 mph 2 mph 65% 0.00 in 279 W/m2
18:20 77.6 °F 64.9 °F 30.25 in WSW 2 mph 5 mph 65% 0.00 in 251 W/m2
18:25 77.6 °F 64.5 °F 30.25 in SW 3 mph 5 mph 64% 0.00 in 232 W/m2
18:30 77.6 °F 64.9 °F 30.25 in WNW 3 mph 3 mph 65% 0.00 in 193 W/m2
18:35 77.6 °F 64.9 °F 30.25 in West 2 mph 3 mph 65% 0.00 in 216 W/m2
18:40 77.5 °F 65.2 °F 30.25 in West 2 mph 2 mph 66% 0.00 in 216 W/m2
18:45 77.5 °F 64.4 °F 30.25 in SW 2 mph 2 mph 64% 0.00 in 264 W/m2
18:50 77.5 °F 63.9 °F 30.25 in West 2 mph 3 mph 63% 0.00 in 253 W/m2
18:55 77.5 °F 63.9 °F 30.25 in West 2 mph 3 mph 63% 0.00 in 190 W/m2
19:00 77.5 °F 63.5 °F 30.25 in West 2 mph 3 mph 62% 0.00 in 148 W/m2
19:05 77.6 °F 63.5 °F 30.25 in SW 2 mph 3 mph 62% 0.00 in 118 W/m2
19:10 77.5 °F 63.5 °F 30.25 in West 2 mph 2 mph 62% 0.00 in 104 W/m2
19:15 77.5 °F 62.5 °F 30.25 in WSW 3 mph 3 mph 60% 0.00 in 90 W/m2
19:20 77.6 °F 62.1 °F 30.25 in West 3 mph 4 mph 59% 0.00 in 84 W/m2
19:25 77.8 °F 62.3 °F 30.25 in WSW 2 mph 4 mph 59% 0.00 in 79 W/m2
19:30 78 °F 62.5 °F 30.25 in West 2 mph 2 mph 59% 0.00 in 74 W/m2
19:35 78.2 °F 63.2 °F 30.25 in WSW 2 mph 2 mph 60% 0.00 in 70 W/m2
19:40 78.3 °F 62.8 °F 30.25 in NW 2 mph 2 mph 59% 0.00 in 72 W/m2
19:45 78.3 °F 63.3 °F 30.25 in West 2 mph 2 mph 60% 0.00 in 62 W/m2
19:50 78.3 °F 63.7 °F 30.25 in WSW 2 mph 2 mph 61% 0.00 in 58 W/m2
19:55 78.1 °F 63.6 °F 30.25 in West 2 mph 2 mph 61% 0.00 in 54 W/m2
20:00 78 °F 63.5 °F 30.25 in WSW 2 mph 2 mph 61% 0.00 in 53 W/m2
20:05 77.8 °F 63.7 °F 30.25 in WNW 2 mph 3 mph 62% 0.00 in 49 W/m2
20:10 77.6 °F 64 °F 30.25 in West 2 mph 3 mph 63% 0.00 in 46 W/m2
20:15 77.4 °F 63.8 °F 30.25 in WSW 2 mph 3 mph 63% 0.00 in 39 W/m2
20:20 77.1 °F 63.1 °F 30.25 in SW 3 mph 5 mph 62% 0.00 in 33 W/m2
20:25 77 °F 62 °F 30.25 in WSW 3 mph 5 mph 60% 0.00 in 30 W/m2
20:30 77 °F 62.5 °F 30.25 in West 3 mph 4 mph 61% 0.00 in 25 W/m2
20:35 76.9 °F 62.4 °F 30.25 in West 3 mph 4 mph 61% 0.00 in 19 W/m2
20:40 76.7 °F 62.2 °F 30.25 in West 3 mph 3 mph 61% 0.00 in 14 W/m2
20:45 76.7 °F 62.2 °F 30.25 in WSW 3 mph 3 mph 61% 0.00 in 9 W/m2
20:50 76.6 °F 62.1 °F 30.25 in WNW 2 mph 2 mph 61% 0.00 in 7 W/m2
20:55 76.5 °F 62 °F 30.25 in West 2 mph 2 mph 61% 0.00 in 0 W/m2
21:00 76.4 °F 62 °F 30.25 in West 2 mph 2 mph 61% 0.00 in 0 W/m2
21:05 76.4 °F 62.4 °F 30.25 in West 2 mph 2 mph 62% 0.00 in 0 W/m2
21:10 76.2 °F 62.2 °F 30.24 in West 2 mph 2 mph 62% 0.00 in 0 W/m2
21:15 76.2 °F 61.8 °F 30.25 in West 2 mph 2 mph 61% 0.00 in 0 W/m2
21:20 76 °F 61.6 °F 30.25 in West 2 mph 2 mph 61% 0.00 in 0 W/m2
21:25 76 °F 61.6 °F 30.25 in West 2 mph 2 mph 61% 0.00 in 0 W/m2
21:30 75.9 °F 61.5 °F 30.25 in West 2 mph 2 mph 61% 0.00 in 0 W/m2
21:35 75.9 °F 61.9 °F 30.25 in WNW 2 mph 3 mph 62% 0.00 in 0 W/m2
21:40 75.8 °F 61.4 °F 30.25 in NW 2 mph 2 mph 61% 0.00 in 0 W/m2
21:45 75.8 °F 61.4 °F 30.25 in West 2 mph 3 mph 61% 0.00 in 0 W/m2
21:50 75.8 °F 61.4 °F 30.25 in West 2 mph 7 mph 61% 0.00 in 0 W/m2
21:55 75.8 °F 61.8 °F 30.25 in West 3 mph 7 mph 62% 0.00 in 0 W/m2
22:00 75.7 °F 61.8 °F 30.25 in West 2 mph 2 mph 62% 0.00 in 0 W/m2
22:05 75.7 °F 61.8 °F 30.25 in West 2 mph 2 mph 62% 0.00 in 0 W/m2
22:10 75.7 °F 61.3 °F 30.25 in WNW 1 mph 2 mph 61% 0.00 in 0 W/m2
22:15 75.6 °F 61.2 °F 30.25 in West 2 mph 2 mph 61% 0.00 in 0 W/m2
22:20 75.6 °F 61.2 °F 30.25 in WSW 2 mph 2 mph 61% 0.00 in 0 W/m2
22:25 75.5 °F 61.1 °F 30.25 in West 1 mph 2 mph 61% 0.00 in 0 W/m2
22:30 75.4 °F 61 °F 30.25 in West 1 mph 1 mph 61% 0.00 in 0 W/m2
22:35 75.4 °F 61 °F 30.25 in West 1 mph 1 mph 61% 0.00 in 0 W/m2
22:40 75.3 °F 61.4 °F 30.25 in West 1 mph 2 mph 62% 0.00 in 0 W/m2
22:45 75.2 °F 61.3 °F 30.25 in West 1 mph 2 mph 62% 0.00 in 0 W/m2
22:50 75.2 °F 61.3 °F 30.25 in West 2 mph 2 mph 62% 0.00 in 0 W/m2
22:55 75.1 °F 61.2 °F 30.25 in West 1 mph 2 mph 62% 0.00 in 0 W/m2
23:00 75 °F 61.5 °F 30.25 in West 1 mph 1 mph 63% 0.00 in 0 W/m2
23:05 74.9 °F 61.5 °F 30.25 in West 2 mph 2 mph 63% 0.00 in 0 W/m2
23:10 74.8 °F 61.8 °F 30.25 in West 1 mph 1 mph 64% 0.00 in 0 W/m2
23:15 74.7 °F 63.4 °F 30.25 in West 1 mph 1 mph 68% 0.00 in 0 W/m2
23:20 74.4 °F 64 °F 30.25 in Calm   1 mph 70% 0.00 in 0 W/m2
23:25 74.1 °F 64.5 °F 30.25 in SW 1 mph 1 mph 72% 0.00 in 0 W/m2
23:30 73.8 °F 64.6 °F 30.25 in SW 1 mph 1 mph 73% 0.00 in 0 W/m2
23:35 73.5 °F 64.7 °F 30.25 in SW 1 mph 1 mph 74% 0.00 in 0 W/m2
23:40 73.2 °F 64.8 °F 30.25 in SW 1 mph 1 mph 75% 0.00 in 0 W/m2
23:45 73 °F 64.6 °F 30.25 in SW 1 mph 1 mph 75% 0.00 in 0 W/m2
23:50 72.7 °F 63.9 °F 30.25 in SW 1 mph 1 mph 74% 0.00 in 0 W/m2
23:55 72.6 °F 64.6 °F 30.25 in SW 1 mph 1 mph 76% 0.00 in 0 W/m2
Sand Point, Michigan, USA
Compliments of Weather Underground - 2 mb